Time;durP1;ratioP1;P1;durP2;ratioP2;P2;SDS_P1;SDS_P2;PMS_P1;PMS_P2;Temp;Humidity;BMP_temperature;BMP_pressure;BME280_temperature;BME280_humidity;BME280_pressure;Samples;Min_cycle;Max_cycle;Signal;HPM_P1;HPM_P2
2023/08/13 00:00:50;;;;;;;6.43;2.50;;;22.60;70.90;;;;;;5056162;28;20032;-61
2023/08/13 00:03:15;;;;;;;4.28;2.40;;;22.60;70.90;;;;;;5057630;28;20033;-62
2023/08/13 00:05:41;;;;;;;2.70;2.40;;;22.60;70.90;;;;;;5060153;28;20551;-62
2023/08/13 00:08:07;;;;;;;3.70;2.40;;;22.60;71.00;;;;;;5070278;28;20391;-63
2023/08/13 00:10:33;;;;;;;4.38;2.63;;;22.60;71.10;;;;;;5064940;28;20028;-61
2023/08/13 00:12:59;;;;;;;3.08;2.38;;;22.50;71.20;;;;;;5059022;28;20024;-61
2023/08/13 00:15:24;;;;;;;3.67;2.60;;;22.60;71.40;;;;;;5060699;28;20127;-61
2023/08/13 00:17:50;;;;;;;2.97;2.47;;;22.60;71.50;;;;;;5066865;28;20021;-62
2023/08/13 00:20:16;;;;;;;2.55;2.30;;;22.60;71.50;;;;;;5063298;28;20081;-63
2023/08/13 00:22:41;;;;;;;3.28;2.40;;;22.50;71.30;;;;;;5059370;28;20083;-63
2023/08/13 00:25:07;;;;;;;2.88;2.30;;;22.50;71.20;;;;;;5062912;28;20029;-63
2023/08/13 00:27:33;;;;;;;6.05;2.17;;;22.50;71.20;;;;;;5056625;28;20059;-60
2023/08/13 00:29:59;;;;;;;4.03;2.42;;;22.50;71.30;;;;;;5063311;28;20052;-62
2023/08/13 00:32:24;;;;;;;6.30;2.72;;;22.50;71.40;;;;;;5059612;28;20068;-62
2023/08/13 00:34:50;;;;;;;5.15;2.42;;;22.50;71.50;;;;;;5064189;28;20416;-61
2023/08/13 00:37:16;;;;;;;5.22;2.38;;;22.50;71.60;;;;;;5060946;28;20391;-60
2023/08/13 00:39:42;;;;;;;2.83;2.45;;;22.50;71.50;;;;;;5065284;28;20472;-61
2023/08/13 00:42:08;;;;;;;3.35;2.17;;;22.50;71.30;;;;;;5067545;28;20077;-61
2023/08/13 00:44:34;;;;;;;4.95;2.30;;;22.40;71.00;;;;;;5065167;28;20036;-61
2023/08/13 00:47:00;;;;;;;2.00;1.80;;;22.40;70.80;;;;;;5061116;28;20394;-61
2023/08/13 00:49:26;;;;;;;5.13;2.15;;;22.40;70.60;;;;;;5066914;28;20094;-61
2023/08/13 00:51:52;;;;;;;6.70;2.22;;;22.30;70.50;;;;;;5071059;28;20558;-61
2023/08/13 00:54:18;;;;;;;3.65;2.45;;;22.30;70.70;;;;;;5069492;28;20066;-61
2023/08/13 00:56:46;;;;;;;4.45;2.40;;;22.30;70.80;;;;;;5063366;28;20040;-62
2023/08/13 00:59:13;;;;;;;6.22;2.35;;;22.20;70.90;;;;;;5061057;28;20460;-63
2023/08/13 01:01:38;;;;;;;2.63;1.90;;;22.20;70.80;;;;;;5060446;28;20020;-61
2023/08/13 01:04:04;;;;;;;3.42;2.22;;;22.20;70.80;;;;;;5069390;28;20078;-60
2023/08/13 01:06:38;;;;;;;5.85;2.13;;;22.10;70.70;;;;;;5068790;28;20028;-61
2023/08/13 01:09:21;;;;;;;3.72;2.05;;;22.10;70.80;;;;;;5071825;28;20051;-61
2023/08/13 01:12:07;;;;;;;5.10;2.17;;;22.00;71.20;;;;;;5071745;28;20029;-62
2023/08/13 01:14:48;;;;;;;2.67;2.08;;;22.00;71.40;;;;;;5070585;28;20093;-61
2023/08/13 01:17:16;;;;;;;2.67;1.98;;;21.90;71.00;;;;;;5066848;28;20044;-61
2023/08/13 01:19:41;;;;;;;3.08;2.13;;;21.90;71.00;;;;;;5067692;28;20052;-61
2023/08/13 01:22:07;;;;;;;5.03;2.20;;;21.90;71.10;;;;;;5067313;28;20056;-61
2023/08/13 01:24:33;;;;;;;5.10;2.33;;;21.80;71.00;;;;;;5071667;28;20526;-60
2023/08/13 01:27:18;;;;;;;3.75;2.50;;;21.80;71.10;;;;;;5063849;28;20437;-61
2023/08/13 01:30:06;;;;;;;3.38;2.35;;;21.80;71.80;;;;;;5072836;28;20064;-62
2023/08/13 01:32:39;;;;;;;6.65;2.80;;;21.80;72.20;;;;;;5065347;28;20471;-62
2023/08/13 01:35:06;;;;;;;3.35;2.17;;;21.70;71.60;;;;;;5055654;28;20036;-62
2023/08/13 01:37:32;;;;;;;3.80;2.50;;;21.70;71.50;;;;;;5060216;28;20029;-61
2023/08/13 01:39:58;;;;;;;5.72;2.38;;;21.70;71.80;;;;;;5065263;28;20032;-60
2023/08/13 01:42:24;;;;;;;6.53;2.45;;;21.70;71.70;;;;;;5062677;28;20037;-61
2023/08/13 01:44:50;;;;;;;4.40;2.60;;;21.70;71.50;;;;;;5071593;28;20031;-60
2023/08/13 01:47:16;;;;;;;4.15;2.58;;;21.70;71.40;;;;;;5068374;28;20511;-61
2023/08/13 01:49:42;;;;;;;4.72;2.13;;;21.60;71.20;;;;;;5061339;28;20036;-62
2023/08/13 01:52:07;;;;;;;2.67;2.00;;;21.60;71.20;;;;;;5062032;28;20043;-61
2023/08/13 01:54:33;;;;;;;2.72;2.00;;;21.60;71.20;;;;;;5065976;28;20028;-61
2023/08/13 01:56:58;;;;;;;3.30;1.90;;;21.50;71.20;;;;;;5061274;28;20017;-61
2023/08/13 01:59:24;;;;;;;5.45;2.30;;;21.50;71.20;;;;;;5063571;28;20028;-61
2023/08/13 02:01:50;;;;;;;3.60;2.60;;;21.50;71.30;;;;;;5070438;28;20677;-60
2023/08/13 02:04:15;;;;;;;4.13;2.55;;;21.40;71.30;;;;;;5056965;28;20483;-62
2023/08/13 02:06:41;;;;;;;3.90;2.30;;;21.40;71.40;;;;;;5058237;28;20479;-61
2023/08/13 02:09:07;;;;;;;4.13;2.13;;;21.30;71.40;;;;;;5061081;28;20040;-62
2023/08/13 02:11:32;;;;;;;3.65;2.40;;;21.30;71.40;;;;;;5063012;28;20028;-60
2023/08/13 02:13:58;;;;;;;4.72;2.47;;;21.30;71.40;;;;;;5065478;28;20044;-62
2023/08/13 02:16:24;;;;;;;3.75;2.13;;;21.30;71.30;;;;;;5061922;28;20023;-61
2023/08/13 02:18:49;;;;;;;8.60;2.38;;;21.20;71.30;;;;;;5065260;28;20567;-61
2023/08/13 02:21:18;;;;;;;3.45;2.13;;;21.20;71.20;;;;;;5069464;28;20552;-61
2023/08/13 02:23:43;;;;;;;3.38;2.50;;;21.20;71.40;;;;;;5062868;28;20429;-62
2023/08/13 02:26:09;;;;;;;2.70;2.20;;;21.10;71.30;;;;;;5065692;28;20104;-62
2023/08/13 02:28:35;;;;;;;4.80;2.15;;;21.10;71.30;;;;;;5060514;28;20085;-62
2023/08/13 02:31:00;;;;;;;2.67;2.20;;;21.10;71.30;;;;;;5070465;28;20086;-62
2023/08/13 02:33:26;;;;;;;3.10;2.20;;;21.00;71.40;;;;;;5065006;28;20071;-62
2023/08/13 02:35:52;;;;;;;2.90;1.95;;;21.00;71.40;;;;;;5063057;28;20025;-62
2023/08/13 02:38:18;;;;;;;4.78;2.22;;;21.00;71.40;;;;;;5061275;28;20033;-62
2023/08/13 02:40:44;;;;;;;3.47;2.00;;;21.00;71.50;;;;;;5064373;28;20031;-62
2023/08/13 02:43:09;;;;;;;7.05;2.20;;;20.90;71.60;;;;;;5066609;28;20353;-62
2023/08/13 02:45:35;;;;;;;3.10;2.00;;;20.90;71.70;;;;;;5069445;28;20032;-61
2023/08/13 02:48:01;;;;;;;2.35;1.90;;;20.90;71.70;;;;;;5062530;28;20043;-62
2023/08/13 02:50:26;;;;;;;3.35;2.00;;;20.80;71.60;;;;;;5070172;28;20028;-62
2023/08/13 02:52:52;;;;;;;2.63;1.85;;;20.80;71.70;;;;;;5063370;28;20047;-61
2023/08/13 02:55:17;;;;;;;3.25;1.80;;;20.80;71.80;;;;;;5053109;28;20040;-61
2023/08/13 02:57:43;;;;;;;3.70;2.00;;;20.80;72.00;;;;;;5074208;28;20024;-61
2023/08/13 03:00:09;;;;;;;3.40;2.22;;;20.70;72.10;;;;;;5066889;28;20020;-61
2023/08/13 03:02:35;;;;;;;3.28;2.25;;;20.70;72.20;;;;;;5066263;28;20052;-61
2023/08/13 03:05:01;;;;;;;5.75;2.58;;;20.70;72.20;;;;;;5063938;28;20060;-61
2023/08/13 03:07:26;;;;;;;3.28;2.35;;;20.70;72.20;;;;;;5061736;28;20052;-61
2023/08/13 03:09:52;;;;;;;4.57;2.10;;;20.70;72.30;;;;;;5060188;28;20056;-61
2023/08/13 03:12:18;;;;;;;3.47;1.95;;;20.70;72.30;;;;;;5059371;28;20044;-61
2023/08/13 03:14:44;;;;;;;3.08;1.95;;;20.70;72.30;;;;;;5065729;28;20523;-63
2023/08/13 03:17:10;;;;;;;5.32;2.03;;;20.60;72.40;;;;;;5059552;28;20378;-61
2023/08/13 03:19:36;;;;;;;3.10;2.10;;;20.60;72.50;;;;;;5064443;28;20021;-61
2023/08/13 03:22:01;;;;;;;3.97;2.10;;;20.60;72.70;;;;;;5066090;28;20590;-61
2023/08/13 03:24:27;;;;;;;4.53;2.10;;;20.60;72.70;;;;;;5063664;28;20063;-62
2023/08/13 03:26:53;;;;;;;4.20;2.25;;;20.60;72.80;;;;;;5067479;28;20032;-63
2023/08/13 03:29:18;;;;;;;4.63;2.47;;;20.60;73.00;;;;;;5062400;28;20106;-60
2023/08/13 03:31:44;;;;;;;3.60;2.13;;;20.50;73.10;;;;;;5067251;28;20032;-60
2023/08/13 03:34:10;;;;;;;3.03;1.83;;;20.60;73.20;;;;;;5069383;28;20041;-61
2023/08/13 03:36:35;;;;;;;7.47;2.20;;;20.60;73.20;;;;;;5066219;28;20031;-61
2023/08/13 03:39:01;;;;;;;3.00;2.40;;;20.60;73.30;;;;;;5057371;28;20094;-61
2023/08/13 03:41:26;;;;;;;2.35;2.03;;;20.60;73.40;;;;;;5066865;28;20106;-62
2023/08/13 03:43:52;;;;;;;4.50;2.17;;;20.60;73.50;;;;;;5063680;28;20071;-61
2023/08/13 03:46:18;;;;;;;6.95;2.42;;;20.60;73.60;;;;;;5068721;28;20435;-61
2023/08/13 03:48:43;;;;;;;3.42;2.22;;;20.60;73.60;;;;;;5065599;28;20028;-60
2023/08/13 03:51:09;;;;;;;3.13;2.20;;;20.60;73.60;;;;;;5063612;28;20328;-61
2023/08/13 03:53:35;;;;;;;3.42;2.40;;;20.60;73.60;;;;;;5062005;28;20457;-61
2023/08/13 03:56:04;;;;;;;4.18;2.35;;;20.60;73.60;;;;;;5068659;28;20520;-61
2023/08/13 03:58:31;;;;;;;5.15;2.28;;;20.60;73.60;;;;;;5058634;28;20394;-60
2023/08/13 04:01:06;;;;;;;6.47;2.47;;;20.60;73.80;;;;;;5069779;28;20031;-61
2023/08/13 04:03:32;;;;;;;7.00;2.50;;;20.60;74.30;;;;;;5065586;28;20028;-61
2023/08/13 04:05:58;;;;;;;2.58;2.05;;;20.60;74.00;;;;;;5065930;28;20032;-61
2023/08/13 04:08:23;;;;;;;2.00;1.80;;;20.60;74.20;;;;;;5056088;28;20052;-61
2023/08/13 04:10:50;;;;;;;2.97;1.80;;;20.60;74.20;;;;;;5064739;28;20082;-62
2023/08/13 04:13:15;;;;;;;3.15;2.00;;;20.70;74.40;;;;;;5057961;28;20132;-60
2023/08/13 04:15:41;;;;;;;2.20;1.98;;;20.70;74.60;;;;;;5059333;28;20911;-61
2023/08/13 04:18:07;;;;;;;1.95;1.70;;;20.70;74.60;;;;;;5061852;28;20024;-62
2023/08/13 04:20:35;;;;;;;1.95;1.80;;;20.70;74.70;;;;;;5069570;28;20067;-61
2023/08/13 04:23:01;;;;;;;2.92;2.08;;;20.70;74.80;;;;;;5076345;28;20035;-61
2023/08/13 04:25:27;;;;;;;4.70;2.28;;;20.70;74.60;;;;;;5067097;28;20020;-62
2023/08/13 04:27:52;;;;;;;2.95;1.98;;;20.70;74.60;;;;;;5068689;28;20040;-62
2023/08/13 04:30:18;;;;;;;3.08;2.17;;;20.80;74.60;;;;;;5072035;28;20020;-62
2023/08/13 04:32:53;;;;;;;2.55;2.00;;;20.80;74.60;;;;;;5071285;28;20399;-61
2023/08/13 04:35:18;;;;;;;4.38;2.08;;;20.80;75.20;;;;;;5068650;28;20047;-61
2023/08/13 04:37:44;;;;;;;4.00;2.00;;;20.80;74.80;;;;;;5068850;28;20032;-61
2023/08/13 04:40:10;;;;;;;2.40;1.70;;;20.80;75.00;;;;;;5071081;28;20025;-62
2023/08/13 04:42:36;;;;;;;2.90;1.80;;;20.80;75.20;;;;;;5064961;28;20075;-61
2023/08/13 04:45:02;;;;;;;2.15;1.70;;;20.80;75.20;;;;;;5075249;28;20024;-61
2023/08/13 04:47:28;;;;;;;2.65;1.50;;;20.90;75.30;;;;;;5065771;28;20522;-62
2023/08/13 04:49:53;;;;;;;1.73;1.63;;;20.90;75.40;;;;;;5064272;28;20032;-61
2023/08/13 04:52:19;;;;;;;2.08;1.40;;;20.90;75.50;;;;;;5069048;28;20484;-61
2023/08/13 04:54:48;;;;;;;1.60;1.45;;;21.00;75.40;;;;;;5061705;28;20036;-61
2023/08/13 04:57:14;;;;;;;2.60;1.60;;;21.00;75.30;;;;;;5069204;28;20039;-61
2023/08/13 04:59:39;;;;;;;1.85;1.60;;;21.00;75.30;;;;;;5069237;28;20040;-61
2023/08/13 05:02:05;;;;;;;2.67;1.60;;;21.10;75.30;;;;;;5077171;28;20016;-60
2023/08/13 05:04:31;;;;;;;3.03;2.33;;;21.10;75.20;;;;;;5075354;28;20024;-61
2023/08/13 05:06:56;;;;;;;5.63;2.13;;;21.10;74.80;;;;;;5067858;28;20078;-61
2023/08/13 05:09:22;;;;;;;5.15;2.35;;;21.10;74.90;;;;;;5063491;28;20052;-61
2023/08/13 05:11:48;;;;;;;7.88;3.13;;;21.00;74.80;;;;;;5058630;28;20080;-62
2023/08/13 05:14:13;;;;;;;3.70;2.75;;;21.10;75.10;;;;;;5066582;28;20048;-60
2023/08/13 05:16:39;;;;;;;4.75;2.53;;;21.10;75.30;;;;;;5070831;28;20111;-61
2023/08/13 05:19:04;;;;;;;4.55;2.63;;;21.10;75.30;;;;;;5070432;28;20043;-60
2023/08/13 05:21:30;;;;;;;5.18;2.05;;;21.10;75.50;;;;;;5068546;28;20464;-60
2023/08/13 05:23:56;;;;;;;1.85;1.75;;;21.10;75.70;;;;;;5068214;28;20365;-62
2023/08/13 05:26:21;;;;;;;1.73;1.50;;;21.20;75.90;;;;;;5061680;28;20136;-60
2023/08/13 05:28:47;;;;;;;2.92;1.42;;;21.20;75.90;;;;;;5068618;28;20060;-60
2023/08/13 05:31:13;;;;;;;1.80;1.50;;;21.20;75.90;;;;;;5059101;28;20040;-61
2023/08/13 05:33:39;;;;;;;2.00;1.80;;;21.30;76.00;;;;;;5060412;28;20024;-61
2023/08/13 05:36:05;;;;;;;3.05;1.63;;;21.30;76.10;;;;;;5065091;28;20328;-61
2023/08/13 05:38:32;;;;;;;2.53;1.35;;;21.30;76.10;;;;;;5055862;28;20554;-61
2023/08/13 05:40:58;;;;;;;2.22;1.65;;;21.30;76.10;;;;;;5069474;28;20035;-61
2023/08/13 05:43:24;;;;;;;2.45;1.80;;;21.40;76.10;;;;;;5063007;28;20035;-63
2023/08/13 05:45:50;;;;;;;3.55;2.25;;;21.40;76.00;;;;;;5067793;28;20456;-61
2023/08/13 05:48:15;;;;;;;2.40;2.20;;;21.40;76.00;;;;;;5073534;28;20344;-62
2023/08/13 05:50:41;;;;;;;2.00;1.80;;;21.40;76.00;;;;;;5071146;28;20413;-63
2023/08/13 05:53:07;;;;;;;2.35;1.58;;;21.50;76.00;;;;;;5066943;28;20032;-60
2023/08/13 05:55:33;;;;;;;4.18;1.67;;;21.50;76.00;;;;;;5066550;28;20465;-60
2023/08/13 05:57:58;;;;;;;2.47;1.98;;;21.50;75.90;;;;;;5070412;28;20387;-61
2023/08/13 06:00:24;;;;;;;3.25;2.70;;;21.50;76.00;;;;;;5062138;28;20459;-62
2023/08/13 06:02:50;;;;;;;7.15;4.78;;;21.60;76.20;;;;;;5068667;28;20052;-62
2023/08/13 06:05:16;;;;;;;10.57;4.65;;;21.60;76.30;;;;;;5065253;28;20024;-61
2023/08/13 06:07:41;;;;;;;10.80;5.72;;;21.60;77.20;;;;;;5063011;28;20040;-63
2023/08/13 06:10:07;;;;;;;13.50;4.97;;;21.70;76.30;;;;;;5063693;28;20399;-61
2023/08/13 06:12:33;;;;;;;10.30;5.00;;;21.70;76.30;;;;;;5060086;28;20029;-61
2023/08/13 06:14:59;;;;;;;9.40;5.53;;;21.70;76.30;;;;;;5071193;28;20098;-60
2023/08/13 06:17:25;;;;;;;9.65;5.88;;;21.70;76.30;;;;;;5062788;28;20106;-62
2023/08/13 06:19:51;;;;;;;13.98;5.68;;;21.70;76.50;;;;;;5062243;28;20031;-62
2023/08/13 06:22:18;;;;;;;8.63;6.00;;;21.70;76.60;;;;;;5065672;28;20024;-60
2023/08/13 06:24:43;;;;;;;10.60;5.97;;;21.70;76.70;;;;;;5068514;28;20475;-60
2023/08/13 06:27:11;;;;;;;7.57;5.40;;;21.80;76.80;;;;;;5068412;28;20035;-61
2023/08/13 06:29:36;;;;;;;11.25;5.65;;;21.80;76.90;;;;;;5065720;28;20020;-61
2023/08/13 06:32:02;;;;;;;8.43;4.10;;;21.80;77.10;;;;;;5071118;28;20028;-59
2023/08/13 06:34:28;;;;;;;8.10;4.00;;;21.80;77.10;;;;;;5058273;28;20055;-60
2023/08/13 06:36:54;;;;;;;4.85;2.65;;;21.80;77.20;;;;;;5065742;28;20433;-60
2023/08/13 06:39:21;;;;;;;2.95;2.47;;;21.90;77.50;;;;;;5060759;28;20086;-60
2023/08/13 06:41:47;;;;;;;3.20;2.40;;;21.80;77.40;;;;;;5059781;28;20749;-61
2023/08/13 06:44:20;;;;;;;3.83;2.50;;;21.90;77.50;;;;;;5070064;28;20039;-60
2023/08/13 06:46:49;;;;;;;3.50;2.38;;;21.90;77.90;;;;;;5060642;28;20611;-60
2023/08/13 06:49:15;;;;;;;2.88;2.15;;;21.90;77.60;;;;;;5063539;28;20041;-60
2023/08/13 06:51:41;;;;;;;4.55;2.75;;;22.00;77.50;;;;;;5069045;28;20029;-60
2023/08/13 06:54:06;;;;;;;6.47;2.78;;;21.90;77.40;;;;;;5067352;28;20533;-60
2023/08/13 06:56:34;;;;;;;5.20;3.47;;;22.00;77.40;;;;;;5061408;28;20096;-60
2023/08/13 06:58:59;;;;;;;5.65;3.40;;;22.00;77.30;;;;;;5062337;28;20024;-60
2023/08/13 07:01:25;;;;;;;5.00;3.15;;;22.00;77.40;;;;;;5060900;28;20024;-60
2023/08/13 07:03:51;;;;;;;6.10;3.95;;;22.00;77.40;;;;;;5068870;28;20036;-61
2023/08/13 07:06:16;;;;;;;4.35;3.10;;;22.10;77.60;;;;;;5067365;28;20067;-60
2023/08/13 07:08:42;;;;;;;6.13;3.35;;;22.10;77.70;;;;;;5061239;28;20094;-62
2023/08/13 07:11:08;;;;;;;4.95;3.17;;;22.10;77.70;;;;;;5057650;28;20035;-60
2023/08/13 07:13:33;;;;;;;3.60;2.70;;;22.10;77.70;;;;;;5071513;28;20429;-62
2023/08/13 07:15:59;;;;;;;2.83;2.58;;;22.10;77.50;;;;;;5069350;28;20464;-61
2023/08/13 07:18:25;;;;;;;3.45;2.50;;;22.20;77.80;;;;;;5059620;28;20025;-62
2023/08/13 07:20:50;;;;;;;4.93;2.55;;;22.20;78.00;;;;;;5061650;28;20031;-62
2023/08/13 07:23:16;;;;;;;3.55;2.13;;;22.20;78.10;;;;;;5067399;28;20121;-61
2023/08/13 07:25:42;;;;;;;4.63;3.30;;;22.30;78.00;;;;;;5061896;28;20488;-61
2023/08/13 07:28:08;;;;;;;5.05;2.63;;;22.30;78.00;;;;;;5062177;28;20048;-61
2023/08/13 07:30:34;;;;;;;5.88;3.20;;;22.40;77.90;;;;;;5064394;28;20108;-59
2023/08/13 07:33:00;;;;;;;3.75;2.95;;;22.40;77.80;;;;;;5058018;28;20039;-61
2023/08/13 07:35:25;;;;;;;7.80;3.35;;;22.40;77.70;;;;;;5059645;28;20428;-62
2023/08/13 07:37:52;;;;;;;4.53;3.58;;;22.50;77.70;;;;;;5056990;28;20090;-61
2023/08/13 07:40:18;;;;;;;4.95;3.95;;;22.50;77.70;;;;;;5061445;28;20035;-61
2023/08/13 07:42:44;;;;;;;8.55;3.95;;;22.50;77.80;;;;;;5060720;28;20028;-62
2023/08/13 07:45:10;;;;;;;4.97;3.20;;;22.60;78.00;;;;;;5062880;28;20029;-61
2023/08/13 07:47:37;;;;;;;5.10;3.00;;;22.60;78.10;;;;;;5069078;28;20421;-61
2023/08/13 07:50:04;;;;;;;3.22;2.67;;;22.60;78.00;;;;;;5053932;28;20041;-61
2023/08/13 07:52:36;;;;;;;3.28;2.60;;;22.60;78.00;;;;;;5051100;28;20051;-61
2023/08/13 07:55:03;;;;;;;9.73;4.28;;;22.70;78.60;;;;;;5058030;28;20025;-60
2023/08/13 07:57:30;;;;;;;4.80;3.42;;;22.80;78.40;;;;;;5062023;28;20020;-62
2023/08/13 07:59:56;;;;;;;6.28;3.63;;;22.90;78.40;;;;;;5057026;28;20562;-61
2023/08/13 08:02:23;;;;;;;6.22;3.95;;;23.00;78.90;;;;;;5067459;28;20033;-61
2023/08/13 08:04:48;;;;;;;7.57;4.03;;;23.10;78.90;;;;;;5067876;28;20813;-61
2023/08/13 08:07:14;;;;;;;7.70;3.47;;;23.30;78.60;;;;;;5071253;28;20031;-62
2023/08/13 08:09:40;;;;;;;7.15;3.50;;;23.40;78.30;;;;;;5058626;28;20073;-61
2023/08/13 08:12:05;;;;;;;4.93;3.75;;;23.50;78.10;;;;;;5060256;28;20536;-60
2023/08/13 08:14:31;;;;;;;6.30;4.45;;;23.60;77.90;;;;;;5068197;28;20041;-62
2023/08/13 08:17:05;;;;;;;5.82;3.90;;;23.70;77.90;;;;;;5066147;28;20029;-60
2023/08/13 08:19:31;;;;;;;4.50;3.72;;;23.80;77.60;;;;;;5066686;28;20032;-60
2023/08/13 08:21:58;;;;;;;5.90;4.03;;;23.90;77.30;;;;;;5070898;28;20086;-62
2023/08/13 08:24:24;;;;;;;5.45;3.38;;;23.90;77.30;;;;;;5062165;28;20024;-62
2023/08/13 08:26:50;;;;;;;4.18;3.40;;;24.00;76.90;;;;;;5065617;28;20029;-62
2023/08/13 08:29:16;;;;;;;4.75;3.30;;;24.10;76.50;;;;;;5052946;28;20029;-61
2023/08/13 08:31:41;;;;;;;4.88;3.63;;;24.10;76.50;;;;;;5064920;28;20024;-62
2023/08/13 08:34:07;;;;;;;5.15;3.83;;;24.20;76.90;;;;;;5061270;28;20040;-62
2023/08/13 08:36:33;;;;;;;5.45;3.85;;;24.30;77.00;;;;;;5074051;28;20042;-61
2023/08/13 08:38:58;;;;;;;6.10;3.30;;;24.40;76.60;;;;;;5061937;28;20043;-62
2023/08/13 08:41:28;;;;;;;6.45;3.90;;;24.50;76.00;;;;;;5059987;28;20039;-61
2023/08/13 08:43:54;;;;;;;4.20;3.38;;;24.50;75.00;;;;;;5062935;28;20467;-61
2023/08/13 08:46:22;;;;;;;4.78;3.55;;;24.60;74.50;;;;;;5065860;28;20033;-60
2023/08/13 08:48:49;;;;;;;4.57;3.50;;;24.60;74.60;;;;;;5063228;28;20021;-62
2023/08/13 08:51:15;;;;;;;5.63;2.95;;;24.60;74.50;;;;;;5069950;28;20499;-60
2023/08/13 08:53:41;;;;;;;4.55;3.65;;;24.70;74.30;;;;;;5067487;28;20539;-61
2023/08/13 08:56:07;;;;;;;3.88;3.00;;;24.70;74.30;;;;;;5068049;28;20020;-61
2023/08/13 08:58:33;;;;;;;7.68;3.63;;;24.80;74.30;;;;;;5072995;28;20050;-61
2023/08/13 09:01:01;;;;;;;4.18;3.38;;;25.00;73.80;;;;;;5065306;28;20052;-60
2023/08/13 09:03:28;;;;;;;5.78;3.75;;;25.00;73.40;;;;;;5065336;28;20020;-61
2023/08/13 09:05:54;;;;;;;4.43;3.25;;;25.10;73.70;;;;;;5056709;28;20033;-60
2023/08/13 09:08:19;;;;;;;4.38;3.03;;;25.20;73.20;;;;;;5064140;28;20149;-62
2023/08/13 09:10:45;;;;;;;5.28;3.40;;;25.20;73.10;;;;;;5070468;28;20670;-62
2023/08/13 09:13:11;;;;;;;4.38;3.15;;;25.30;73.00;;;;;;5057853;28;20069;-60
2023/08/13 09:15:49;;;;;;;5.13;3.10;;;25.40;73.20;;;;;;5070919;28;20028;-61
2023/08/13 09:18:16;;;;;;;4.05;2.88;;;25.50;73.60;;;;;;5059924;28;20494;-61
2023/08/13 09:20:46;;;;;;;6.90;3.03;;;25.50;72.90;;;;;;5065928;28;20035;-61
2023/08/13 09:23:24;;;;;;;4.07;2.85;;;25.80;73.00;;;;;;5055744;28;20028;-63
2023/08/13 09:25:55;;;;;;;3.33;2.90;;;26.00;73.60;;;;;;5058212;28;20474;-63
2023/08/13 09:28:21;;;;;;;3.13;2.70;;;26.30;72.90;;;;;;4971798;28;20044;-61
2023/08/13 09:30:46;;;;;;;6.63;2.45;;;26.50;72.60;;;;;;5064415;28;20024;-62
2023/08/13 09:33:16;;;;;;;3.50;3.03;;;26.80;72.10;;;;;;5064761;28;21401;-62
2023/08/13 09:35:44;;;;;;;5.32;2.85;;;27.00;71.30;;;;;;5059011;28;20052;-61
2023/08/13 09:38:09;;;;;;;4.90;2.60;;;27.20;71.50;;;;;;5064692;28;20487;-62
2023/08/13 09:40:36;;;;;;;3.38;2.50;;;27.40;70.60;;;;;;5061114;28;20041;-61
2023/08/13 09:43:08;;;;;;;4.88;2.80;;;27.50;69.40;;;;;;5054629;28;20036;-62
2023/08/13 09:45:35;;;;;;;6.20;2.35;;;27.70;68.20;;;;;;5054773;28;20020;-61
2023/08/13 09:48:06;;;;;;;4.78;2.65;;;27.90;67.30;;;;;;5062464;28;20032;-62
2023/08/13 09:50:40;;;;;;;4.53;2.95;;;28.10;66.80;;;;;;5061281;28;20024;-62
2023/08/13 09:53:11;;;;;;;3.85;2.78;;;28.20;65.70;;;;;;5061229;28;20538;-62
2023/08/13 09:55:43;;;;;;;5.63;3.05;;;28.40;66.30;;;;;;5064088;28;20445;-62
2023/08/13 09:58:11;;;;;;;5.47;3.33;;;28.50;65.70;;;;;;5059282;28;20028;-62
2023/08/13 10:00:37;;;;;;;7.00;2.83;;;28.60;65.60;;;;;;5067610;28;20478;-63
2023/08/13 10:03:03;;;;;;;4.40;2.67;;;28.70;65.40;;;;;;5066038;28;20090;-63
2023/08/13 10:05:32;;;;;;;4.28;2.50;;;28.80;65.30;;;;;;5069218;28;20032;-63
2023/08/13 10:07:59;;;;;;;5.70;2.95;;;28.80;65.40;;;;;;5067074;28;20016;-62
2023/08/13 10:10:25;;;;;;;3.63;2.63;;;29.00;64.90;;;;;;5064114;28;20043;-62
2023/08/13 10:12:51;;;;;;;7.07;2.60;;;29.10;65.30;;;;;;5064107;28;20033;-62
2023/08/13 10:15:19;;;;;;;4.50;2.58;;;29.30;65.10;;;;;;5061506;28;20043;-61
2023/08/13 10:17:46;;;;;;;4.57;3.15;;;29.40;63.30;;;;;;5055610;28;20078;-63
2023/08/13 10:20:12;;;;;;;8.02;2.50;;;29.60;63.20;;;;;;5066693;28;20115;-63
2023/08/13 10:22:40;;;;;;;7.18;2.80;;;29.70;62.60;;;;;;5065389;28;20032;-63
2023/08/13 10:25:07;;;;;;;5.60;2.60;;;29.80;61.90;;;;;;5063946;28;20021;-62
2023/08/13 10:27:42;;;;;;;5.13;2.67;;;29.80;61.50;;;;;;5064197;28;20035;-62
2023/08/13 10:30:12;;;;;;;4.05;2.30;;;29.90;61.00;;;;;;5058232;28;20531;-62
2023/08/13 10:32:51;;;;;;;4.13;2.38;;;29.90;60.60;;;;;;5062175;28;20538;-63
2023/08/13 10:35:24;;;;;;;5.30;2.42;;;30.00;60.40;;;;;;5061633;28;20028;-61
2023/08/13 10:38:01;;;;;;;3.88;2.55;;;30.10;60.10;;;;;;5061628;28;20028;-63
2023/08/13 10:40:27;;;;;;;3.45;2.40;;;30.20;60.60;;;;;;5060415;28;20029;-61
2023/08/13 10:42:54;;;;;;;4.70;2.58;;;30.30;60.40;;;;;;5065404;28;20082;-62
2023/08/13 10:45:29;;;;;;;5.15;2.75;;;30.40;59.60;;;;;;5057500;28;20048;-62
2023/08/13 10:47:55;;;;;;;3.85;2.40;;;30.50;58.70;;;;;;5062047;28;20119;-62
2023/08/13 10:50:35;;;;;;;11.13;2.70;;;30.50;59.10;;;;;;5063841;28;20473;-62
2023/08/13 10:53:21;;;;;;;5.22;2.50;;;30.50;57.90;;;;;;5054130;28;20040;-62
2023/08/13 10:55:55;;;;;;;2.42;2.10;;;30.60;57.40;;;;;;5057623;28;20051;-62
2023/08/13 10:58:39;;;;;;;6.38;2.25;;;30.70;58.00;;;;;;5056591;28;20020;-62
2023/08/13 11:01:16;;;;;;;3.95;2.00;;;30.70;57.30;;;;;;5056554;28;20069;-61
2023/08/13 11:03:55;;;;;;;3.90;2.30;;;30.80;57.60;;;;;;5060443;28;20036;-64
2023/08/13 11:06:23;;;;;;;4.05;2.13;;;30.90;57.90;;;;;;5061722;28;20367;-62
2023/08/13 11:08:49;;;;;;;3.53;2.15;;;31.00;58.20;;;;;;5069346;28;20288;-62
2023/08/13 11:11:16;;;;;;;4.63;1.95;;;31.10;58.00;;;;;;5069281;28;20024;-62
2023/08/13 11:13:42;;;;;;;3.83;2.40;;;31.10;57.80;;;;;;5064997;28;20451;-62
2023/08/13 11:16:08;;;;;;;3.70;2.10;;;31.30;57.20;;;;;;5060243;28;20056;-63
2023/08/13 11:18:34;;;;;;;3.05;1.88;;;31.30;57.10;;;;;;5055410;28;20040;-62
2023/08/13 11:21:00;;;;;;;4.57;2.30;;;31.50;57.00;;;;;;5067844;28;20035;-62
2023/08/13 11:23:26;;;;;;;5.95;2.42;;;31.60;56.30;;;;;;5065260;28;20025;-63
2023/08/13 11:25:52;;;;;;;3.63;2.10;;;31.60;56.30;;;;;;5064755;28;20074;-62
2023/08/13 11:28:25;;;;;;;4.05;2.05;;;31.80;56.10;;;;;;5056435;28;20045;-63
2023/08/13 11:30:59;;;;;;;3.10;1.88;;;31.90;54.30;;;;;;5055776;28;20016;-63
2023/08/13 11:33:25;;;;;;;;;;;31.90;53.80;;;;;;5058698;28;20106;-63
2023/08/13 11:35:51;;;;;;;4.55;1.95;;;32.00;56.00;;;;;;5060798;28;20842;-63
2023/08/13 11:38:18;;;;;;;3.13;1.77;;;32.10;54.60;;;;;;5054404;28;20023;-63
2023/08/13 11:40:43;;;;;;;7.65;2.70;;;32.20;54.30;;;;;;5053180;28;20463;-63
2023/08/13 11:43:11;;;;;;;3.00;1.73;;;32.30;54.10;;;;;;5055624;28;20044;-63
2023/08/13 11:45:38;;;;;;;4.40;2.10;;;32.40;53.90;;;;;;5058317;28;20406;-63
2023/08/13 11:48:14;;;;;;;4.32;1.80;;;32.50;53.20;;;;;;5056712;28;20097;-63
2023/08/13 11:50:44;;;;;;;2.92;1.52;;;32.50;52.90;;;;;;5049511;28;20032;-63
2023/08/13 11:53:12;;;;;;;4.95;1.80;;;32.60;52.60;;;;;;5062596;28;20455;-62
2023/08/13 11:55:46;;;;;;;4.20;1.70;;;32.70;52.40;;;;;;5065526;28;20028;-62
2023/08/13 11:58:18;;;;;;;2.45;1.58;;;32.80;50.40;;;;;;5058410;28;20035;-62
2023/08/13 12:00:48;;;;;;;4.53;1.57;;;32.90;50.50;;;;;;5062928;28;20412;-62
2023/08/13 12:03:15;;;;;;;3.40;2.05;;;33.00;49.10;;;;;;5060597;28;20024;-62
2023/08/13 12:05:42;;;;;;;2.47;1.17;;;33.00;49.80;;;;;;5063323;28;20063;-63
2023/08/13 12:08:11;;;;;;;5.07;1.50;;;33.10;49.90;;;;;;5067042;28;20024;-62
2023/08/13 12:10:38;;;;;;;3.35;1.80;;;33.10;50.50;;;;;;5058584;28;20025;-62
2023/08/13 12:13:04;;;;;;;2.22;1.50;;;33.10;48.80;;;;;;5061910;28;20156;-62
2023/08/13 12:15:31;;;;;;;3.75;1.95;;;33.20;48.90;;;;;;5065273;28;20123;-62
2023/08/13 12:17:58;;;;;;;5.00;1.63;;;33.20;49.60;;;;;;5061948;28;20491;-64
2023/08/13 12:20:24;;;;;;;4.22;1.67;;;33.30;49.40;;;;;;5065119;28;20143;-63
2023/08/13 12:22:50;;;;;;;3.00;1.85;;;33.40;49.20;;;;;;5063992;28;20371;-63
2023/08/13 12:25:16;;;;;;;2.65;1.88;;;33.40;48.60;;;;;;5067893;28;20033;-62
2023/08/13 12:27:43;;;;;;;3.95;1.58;;;33.40;48.40;;;;;;4959923;28;20108;-63
2023/08/13 12:30:10;;;;;;;5.10;1.85;;;33.30;48.20;;;;;;5060403;28;20218;-62
2023/08/13 12:32:36;;;;;;;5.47;2.00;;;33.10;47.90;;;;;;5069086;28;20058;-63
2023/08/13 12:35:02;;;;;;;5.93;1.70;;;33.00;47.80;;;;;;5057732;28;20025;-62
2023/08/13 12:37:29;;;;;;;4.80;1.58;;;32.70;48.00;;;;;;5055600;28;20096;-62
2023/08/13 12:39:54;;;;;;;2.90;1.52;;;32.60;47.80;;;;;;5056353;28;20028;-63
2023/08/13 12:42:20;;;;;;;5.22;1.85;;;32.40;47.90;;;;;;5057125;28;20032;-63
2023/08/13 12:44:47;;;;;;;3.30;2.00;;;32.10;48.00;;;;;;5051168;28;20036;-62
2023/08/13 12:47:12;;;;;;;2.42;1.70;;;31.90;48.60;;;;;;5054889;28;20400;-63